sensor_id;sensor_type;location;lat;lon;timestamp;pressure;altitude;pressure_sealevel;temperature;humidity
60337;BME280;46978;50.288;28.624;2024-03-23T00:52:56;98634.33;;;5.43;100.00
60337;BME280;46978;50.288;28.624;2024-03-23T00:55:02;98626.60;;;5.43;100.00
60337;BME280;46978;50.288;28.624;2024-03-23T00:56:04;98631.73;;;5.44;100.00
60337;BME280;46978;50.288;28.624;2024-03-23T00:57:06;98625.72;;;5.44;100.00
60337;BME280;46978;50.288;28.624;2024-03-23T00:58:08;98628.29;;;5.44;100.00
60337;BME280;46978;50.288;28.624;2024-03-23T00:59:09;98626.60;;;5.43;100.00
60337;BME280;46978;50.288;28.624;2024-03-23T01:00:12;98624.02;;;5.44;100.00
60337;BME280;46978;50.288;28.624;2024-03-23T01:01:14;98628.27;;;5.45;100.00
60337;BME280;46978;50.288;28.624;2024-03-23T01:02:15;98624.86;;;5.45;100.00
60337;BME280;46978;50.288;28.624;2024-03-23T01:03:17;98630.00;;;5.45;100.00
60337;BME280;46978;50.288;28.624;2024-03-23T01:04:18;98627.45;;;5.43;100.00
60337;BME280;46978;50.288;28.624;2024-03-23T01:05:20;98632.59;;;5.43;100.00
60337;BME280;46978;50.288;28.624;2024-03-23T01:06:22;98627.45;;;5.43;100.00
60337;BME280;46978;50.288;28.624;2024-03-23T01:07:23;98623.14;;;5.44;100.00
60337;BME280;46978;50.288;28.624;2024-03-23T01:08:25;98631.75;;;5.43;100.00
60337;BME280;46978;50.288;28.624;2024-03-23T01:09:26;98627.45;;;5.43;100.00
60337;BME280;46978;50.288;28.624;2024-03-23T01:10:28;98622.31;;;5.42;100.00
60337;BME280;46978;50.288;28.624;2024-03-23T01:11:30;98620.61;;;5.39;100.00
60337;BME280;46978;50.288;28.624;2024-03-23T01:12:31;98624.93;;;5.37;100.00
60337;BME280;46978;50.288;28.624;2024-03-23T01:13:33;98623.20;;;5.37;100.00
60337;BME280;46978;50.288;28.624;2024-03-23T01:14:34;98618.06;;;5.36;100.00
60337;BME280;46978;50.288;28.624;2024-03-23T01:15:36;98618.95;;;5.35;100.00
60337;BME280;46978;50.288;28.624;2024-03-23T01:16:37;98612.09;;;5.34;100.00
60337;BME280;46978;50.288;28.624;2024-03-23T01:17:39;98611.25;;;5.33;100.00
60337;BME280;46978;50.288;28.624;2024-03-23T01:18:41;98601.81;;;5.32;100.00
60337;BME280;46978;50.288;28.624;2024-03-23T01:19:42;98608.70;;;5.32;100.00
60337;BME280;46978;50.288;28.624;2024-03-23T01:20:44;98608.70;;;5.30;100.00
60337;BME280;46978;50.288;28.624;2024-03-23T01:21:46;98611.30;;;5.29;100.00
60337;BME280;46978;50.288;28.624;2024-03-23T01:22:47;98610.47;;;5.27;100.00
60337;BME280;46978;50.288;28.624;2024-03-23T01:23:49;98604.46;;;5.25;100.00
60337;BME280;46978;50.288;28.624;2024-03-23T01:24:51;98603.63;;;5.23;100.00
60337;BME280;46978;50.288;28.624;2024-03-23T01:25:53;98601.06;;;5.23;100.00
60337;BME280;46978;50.288;28.624;2024-03-23T01:26:55;98602.80;;;5.20;100.00
60337;BME280;46978;50.288;28.624;2024-03-23T01:27:56;98600.25;;;5.19;100.00
60337;BME280;46978;50.288;28.624;2024-03-23T01:28:58;98601.94;;;5.18;100.00
60337;BME280;46978;50.288;28.624;2024-03-23T01:29:59;98594.25;;;5.15;100.00
60337;BME280;46978;50.288;28.624;2024-03-23T01:31:01;98595.98;;;5.15;100.00
60337;BME280;46978;50.288;28.624;2024-03-23T01:32:03;98595.98;;;5.15;100.00
60337;BME280;46978;50.288;28.624;2024-03-23T01:33:05;98594.27;;;5.14;100.00
60337;BME280;46978;50.288;28.624;2024-03-23T01:34:07;98589.13;;;5.12;100.00
60337;BME280;46978;50.288;28.624;2024-03-23T01:35:08;98594.28;;;5.12;100.00
60337;BME280;46978;50.288;28.624;2024-03-23T01:36:10;98596.85;;;5.12;100.00
60337;BME280;46978;50.288;28.624;2024-03-23T01:37:11;98597.73;;;5.11;100.00
60337;BME280;46978;50.288;28.624;2024-03-23T01:38:13;98597.73;;;5.11;100.00
60337;BME280;46978;50.288;28.624;2024-03-23T01:39:14;98590.86;;;5.12;100.00
60337;BME280;46978;50.288;28.624;2024-03-23T01:40:16;98589.13;;;5.12;100.00
60337;BME280;46978;50.288;28.624;2024-03-23T01:41:18;98589.13;;;5.12;100.00
60337;BME280;46978;50.288;28.624;2024-03-23T01:42:20;98590.02;;;5.11;100.00
60337;BME280;46978;50.288;28.624;2024-03-23T01:43:21;98586.56;;;5.12;100.00
60337;BME280;46978;50.288;28.624;2024-03-23T01:44:23;98581.42;;;5.12;100.00
60337;BME280;46978;50.288;28.624;2024-03-23T01:45:24;98585.72;;;5.12;100.00
60337;BME280;46978;50.288;28.624;2024-03-23T01:46:26;98586.55;;;5.14;100.00
60337;BME280;46978;50.288;28.624;2024-03-23T01:47:28;98584.85;;;5.14;100.00
60337;BME280;46978;50.288;28.624;2024-03-23T01:48:30;98591.69;;;5.14;100.00
60337;BME280;46978;50.288;28.624;2024-03-23T01:49:32;98587.45;;;5.11;100.00
60337;BME280;46978;50.288;28.624;2024-03-23T01:50:34;98586.56;;;5.12;100.00
60337;BME280;46978;50.288;28.624;2024-03-23T01:51:37;98590.01;;;5.13;100.00
60337;BME280;46978;50.288;28.624;2024-03-23T01:52:39;98580.56;;;5.13;100.00
60337;BME280;46978;50.288;28.624;2024-03-23T01:53:40;98587.42;;;5.14;100.00
60337;BME280;46978;50.288;28.624;2024-03-23T01:54:42;98584.85;;;5.14;100.00
60337;BME280;46978;50.288;28.624;2024-03-23T01:55:45;98586.53;;;5.15;100.00
60337;BME280;46978;50.288;28.624;2024-03-23T01:56:47;98582.25;;;5.17;100.00
60337;BME280;46978;50.288;28.624;2024-03-23T01:57:49;98577.95;;;5.18;100.00
60337;BME280;46978;50.288;28.624;2024-03-23T01:58:50;98570.23;;;5.18;100.00
60337;BME280;46978;50.288;28.624;2024-03-23T01:59:52;98572.80;;;5.19;100.00
60337;BME280;46978;50.288;28.624;2024-03-23T02:00:53;98565.92;;;5.20;100.00
60337;BME280;46978;50.288;28.624;2024-03-23T02:01:55;98568.48;;;5.21;100.00
60337;BME280;46978;50.288;28.624;2024-03-23T02:02:56;98559.08;;;5.20;100.00
60337;BME280;46978;50.288;28.624;2024-03-23T02:03:58;98555.62;;;5.21;100.00
60337;BME280;46978;50.288;28.624;2024-03-23T02:05:00;98551.36;;;5.20;100.00
60337;BME280;46978;50.288;28.624;2024-03-23T02:06:02;98546.20;;;5.22;100.00
60337;BME280;46978;50.288;28.624;2024-03-23T02:07:06;98548.78;;;5.22;100.00
60337;BME280;46978;50.288;28.624;2024-03-23T02:08:09;98548.78;;;5.22;100.00
60337;BME280;46978;50.288;28.624;2024-03-23T02:09:10;98554.75;;;5.24;100.00
60337;BME280;46978;50.288;28.624;2024-03-23T02:10:12;98554.75;;;5.24;100.00
60337;BME280;46978;50.288;28.624;2024-03-23T02:11:14;98559.89;;;5.24;100.00
60337;BME280;46978;50.288;28.624;2024-03-23T02:12:16;98560.72;;;5.26;100.00
60337;BME280;46978;50.288;28.624;2024-03-23T02:13:18;98555.58;;;5.26;100.00
60337;BME280;46978;50.288;28.624;2024-03-23T02:14:20;98553.00;;;5.26;100.00
60337;BME280;46978;50.288;28.624;2024-03-23T02:15:22;98548.73;;;5.27;100.00
60337;BME280;46978;50.288;28.624;2024-03-23T02:16:24;98558.13;;;5.28;100.00
60337;BME280;46978;50.288;28.624;2024-03-23T02:18:30;98549.56;;;5.29;100.00
60337;BME280;46978;50.288;28.624;2024-03-23T02:19:31;98547.84;;;5.28;100.00
60337;BME280;46978;50.288;28.624;2024-03-23T02:20:33;98549.56;;;5.29;100.00
60337;BME280;46978;50.288;28.624;2024-03-23T02:21:34;98552.97;;;5.29;100.00
60337;BME280;46978;50.288;28.624;2024-03-23T02:22:39;98542.68;;;5.29;100.00
60337;BME280;46978;50.288;28.624;2024-03-23T02:23:41;98545.25;;;5.29;100.00
60337;BME280;46978;50.288;28.624;2024-03-23T02:24:43;98549.56;;;5.29;100.00
60337;BME280;46978;50.288;28.624;2024-03-23T02:26:04;98550.40;;;5.29;100.00
60337;BME280;46978;50.288;28.624;2024-03-23T02:27:06;98541.84;;;5.29;100.00
60337;BME280;46978;50.288;28.624;2024-03-23T02:28:08;98545.25;;;5.29;100.00
60337;BME280;46978;50.288;28.624;2024-03-23T02:29:10;98544.40;;;5.30;100.00
60337;BME280;46978;50.288;28.624;2024-03-23T02:30:11;98548.67;;;5.30;100.00
60337;BME280;46978;50.288;28.624;2024-03-23T02:31:13;98551.23;;;5.30;100.00
60337;BME280;46978;50.288;28.624;2024-03-23T02:32:15;98542.67;;;5.31;100.00
60337;BME280;46978;50.288;28.624;2024-03-23T02:33:16;98546.08;;;5.31;100.00
60337;BME280;46978;50.288;28.624;2024-03-23T02:34:18;98539.23;;;5.32;100.00
60337;BME280;46978;50.288;28.624;2024-03-23T02:35:19;98536.66;;;5.32;100.00
60337;BME280;46978;50.288;28.624;2024-03-23T02:36:21;98543.49;;;5.33;100.00
60337;BME280;46978;50.288;28.624;2024-03-23T02:37:23;98536.65;;;5.33;100.00
60337;BME280;46978;50.288;28.624;2024-03-23T02:38:24;98540.91;;;5.34;100.00
60337;BME280;46978;50.288;28.624;2024-03-23T02:39:26;98536.63;;;5.35;100.00
60337;BME280;46978;50.288;28.624;2024-03-23T02:40:28;98535.74;;;5.36;100.00
60337;BME280;46978;50.288;28.624;2024-03-23T02:41:30;98537.46;;;5.37;100.00
60337;BME280;46978;50.288;28.624;2024-03-23T02:42:31;98529.74;;;5.37;100.00
60337;BME280;46978;50.288;28.624;2024-03-23T02:43:33;98522.88;;;5.36;100.00
60337;BME280;46978;50.288;28.624;2024-03-23T02:44:35;98521.16;;;5.38;100.00
60337;BME280;46978;50.288;28.624;2024-03-23T02:45:36;98519.45;;;5.37;100.00
60337;BME280;46978;50.288;28.624;2024-03-23T02:46:38;98517.70;;;5.39;100.00
60337;BME280;46978;50.288;28.624;2024-03-23T02:47:40;98508.30;;;5.38;100.00
60337;BME280;46978;50.288;28.624;2024-03-23T02:48:41;98512.56;;;5.39;100.00
60337;BME280;46978;50.288;28.624;2024-03-23T02:49:43;98508.29;;;5.39;100.00
60337;BME280;46978;50.288;28.624;2024-03-23T02:50:44;98503.98;;;5.40;100.00
60337;BME280;46978;50.288;28.624;2024-03-23T02:51:46;98498.86;;;5.38;100.00
60337;BME280;46978;50.288;28.624;2024-03-23T02:52:48;98503.12;;;5.41;100.00
60337;BME280;46978;50.288;28.624;2024-03-23T02:53:49;98508.27;;;5.41;100.00
60337;BME280;46978;50.288;28.624;2024-03-23T02:54:51;98500.53;;;5.43;100.00
60337;BME280;46978;50.288;28.624;2024-03-23T02:55:53;98497.96;;;5.43;100.00
60337;BME280;46978;50.288;28.624;2024-03-23T02:56:54;98500.52;;;5.44;100.00
60337;BME280;46978;50.288;28.624;2024-03-23T02:57:56;98497.07;;;5.44;100.00
60337;BME280;46978;50.288;28.624;2024-03-23T02:58:57;98499.64;;;5.44;100.00
60337;BME280;46978;50.288;28.624;2024-03-23T03:00:02;98495.38;;;5.44;100.00
60337;BME280;46978;50.288;28.624;2024-03-23T03:01:04;98503.95;;;5.43;100.00
60337;BME280;46978;50.288;28.624;2024-03-23T03:02:06;98496.21;;;5.45;100.00
60337;BME280;46978;50.288;28.624;2024-03-23T03:03:07;98500.52;;;5.44;100.00
60337;BME280;46978;50.288;28.624;2024-03-23T03:04:09;98497.07;;;5.44;100.00
60337;BME280;46978;50.288;28.624;2024-03-23T03:05:10;98497.07;;;5.44;100.00
60337;BME280;46978;50.288;28.624;2024-03-23T03:06:22;98497.94;;;5.44;100.00
60337;BME280;46978;50.288;28.624;2024-03-23T03:07:17;98491.92;;;5.44;100.00
60337;BME280;46978;50.288;28.624;2024-03-23T03:08:19;98504.79;;;5.44;100.00
60337;BME280;46978;50.288;28.624;2024-03-23T03:09:21;98504.79;;;5.44;100.00
60337;BME280;46978;50.288;28.624;2024-03-23T03:10:22;98494.50;;;5.44;100.00
60337;BME280;46978;50.288;28.624;2024-03-23T03:11:24;98493.66;;;5.43;100.00
60337;BME280;46978;50.288;28.624;2024-03-23T03:12:25;98497.11;;;5.41;100.00
60337;BME280;46978;50.288;28.624;2024-03-23T03:13:27;98487.66;;;5.44;100.00
60337;BME280;46978;50.288;28.624;2024-03-23T03:14:29;98493.66;;;5.43;100.00
60337;BME280;46978;50.288;28.624;2024-03-23T03:15:30;98491.92;;;5.44;100.00
60337;BME280;46978;50.288;28.624;2024-03-23T03:16:32;98494.48;;;5.45;100.00
60337;BME280;46978;50.288;28.624;2024-03-23T03:17:34;98491.91;;;5.45;100.00
60337;BME280;46978;50.288;28.624;2024-03-23T03:18:35;98492.80;;;5.44;100.00
60337;BME280;46978;50.288;28.624;2024-03-23T03:19:37;98487.63;;;5.46;100.00
60337;BME280;46978;50.288;28.624;2024-03-23T03:20:39;98488.48;;;5.46;100.00
60337;BME280;46978;50.288;28.624;2024-03-23T03:21:41;98486.74;;;5.47;100.00
60337;BME280;46978;50.288;28.624;2024-03-23T03:22:43;98485.91;;;5.46;100.00
60337;BME280;46978;50.288;28.624;2024-03-23T03:23:44;98487.63;;;5.46;100.00
60337;BME280;46978;50.288;28.624;2024-03-23T03:24:46;98490.20;;;5.46;100.00
60337;BME280;46978;50.288;28.624;2024-03-23T03:25:48;98487.63;;;5.46;100.00
60337;BME280;46978;50.288;28.624;2024-03-23T03:26:49;98488.48;;;5.46;100.00
60337;BME280;46978;50.288;28.624;2024-03-23T03:27:51;98485.06;;;5.46;100.00
60337;BME280;46978;50.288;28.624;2024-03-23T03:28:53;98462.75;;;5.46;100.00
60337;BME280;46978;50.288;28.624;2024-03-23T03:29:54;98491.05;;;5.46;100.00
60337;BME280;46978;50.288;28.624;2024-03-23T03:30:56;98485.06;;;5.46;100.00
60337;BME280;46978;50.288;28.624;2024-03-23T03:31:58;98491.89;;;5.47;100.00
60337;BME280;46978;50.288;28.624;2024-03-23T03:33:00;98487.63;;;5.46;100.00
60337;BME280;46978;50.288;28.624;2024-03-23T03:34:01;98481.61;;;5.45;100.00
60337;BME280;46978;50.288;28.624;2024-03-23T03:35:03;98484.19;;;5.45;100.00
60337;BME280;46978;50.288;28.624;2024-03-23T03:36:06;98481.61;;;5.45;100.00
60337;BME280;46978;50.288;28.624;2024-03-23T03:37:08;98484.17;;;5.47;100.00
60337;BME280;46978;50.288;28.624;2024-03-23T03:38:09;98490.19;;;5.47;100.00
60337;BME280;46978;50.288;28.624;2024-03-23T03:39:11;98485.88;;;5.48;100.00
60337;BME280;46978;50.288;28.624;2024-03-23T03:40:13;98491.87;;;5.48;100.00
60337;BME280;46978;50.288;28.624;2024-03-23T03:41:15;98488.44;;;5.49;100.00
60337;BME280;46978;50.288;28.624;2024-03-23T03:42:16;98485.02;;;5.49;100.00
60337;BME280;46978;50.288;28.624;2024-03-23T03:43:18;98480.72;;;5.49;100.00
60337;BME280;46978;50.288;28.624;2024-03-23T03:44:19;98480.70;;;5.51;100.00
60337;BME280;46978;50.288;28.624;2024-03-23T03:45:21;98479.86;;;5.50;100.00
60337;BME280;46978;50.288;28.624;2024-03-23T03:46:22;98476.41;;;5.50;100.00
60337;BME280;46978;50.288;28.624;2024-03-23T03:47:24;98476.41;;;5.50;100.00
60337;BME280;46978;50.288;28.624;2024-03-23T03:48:26;98484.12;;;5.51;100.00
60337;BME280;46978;50.288;28.624;2024-03-23T03:49:28;98478.13;;;5.51;100.00
60337;BME280;46978;50.288;28.624;2024-03-23T03:50:30;98475.54;;;5.52;100.00
60337;BME280;46978;50.288;28.624;2024-03-23T03:51:31;98476.37;;;5.53;100.00
60337;BME280;46978;50.288;28.624;2024-03-23T03:52:33;98478.11;;;5.52;100.00
60337;BME280;46978;50.288;28.624;2024-03-23T03:53:34;98484.98;;;5.52;100.00
60337;BME280;46978;50.288;28.624;2024-03-23T03:54:36;98478.97;;;5.51;100.00
60337;BME280;46978;50.288;28.624;2024-03-23T03:55:38;98479.84;;;5.52;100.00
60337;BME280;46978;50.288;28.624;2024-03-23T03:56:39;98477.27;;;5.52;100.00
60337;BME280;46978;50.288;28.624;2024-03-23T03:57:41;98472.97;;;5.52;100.00
60337;BME280;46978;50.288;28.624;2024-03-23T03:58:43;98475.54;;;5.52;100.00
60337;BME280;46978;50.288;28.624;2024-03-23T03:59:45;98472.97;;;5.52;100.00
60337;BME280;46978;50.288;28.624;2024-03-23T04:00:46;98476.37;;;5.53;100.00
60337;BME280;46978;50.288;28.624;2024-03-23T04:01:48;98466.96;;;5.53;100.00
60337;BME280;46978;50.288;28.624;2024-03-23T04:02:50;98468.66;;;5.53;100.00
60337;BME280;46978;50.288;28.624;2024-03-23T04:03:51;98466.98;;;5.52;100.00
60337;BME280;46978;50.288;28.624;2024-03-23T04:04:53;98465.25;;;5.52;100.00
60337;BME280;46978;50.288;28.624;2024-03-23T04:05:55;98464.39;;;5.53;100.00
60337;BME280;46978;50.288;28.624;2024-03-23T04:07:00;98459.23;;;5.53;100.00
60337;BME280;46978;50.288;28.624;2024-03-23T04:08:02;98464.39;;;5.53;100.00
60337;BME280;46978;50.288;28.624;2024-03-23T04:09:03;98463.49;;;5.54;100.00
60337;BME280;46978;50.288;28.624;2024-03-23T04:10:06;98460.08;;;5.54;100.00
60337;BME280;46978;50.288;28.624;2024-03-23T04:11:08;98463.49;;;5.54;100.00
60337;BME280;46978;50.288;28.624;2024-03-23T04:12:09;98454.94;;;5.54;100.00
60337;BME280;46978;50.288;28.624;2024-03-23T04:13:16;98452.34;;;5.55;100.00
60337;BME280;46978;50.288;28.624;2024-03-23T04:14:15;98454.91;;;5.55;100.00
60337;BME280;46978;50.288;28.624;2024-03-23T04:15:36;98447.23;;;5.52;100.00
60337;BME280;46978;50.288;28.624;2024-03-23T04:16:38;98454.89;;;5.57;100.00
60337;BME280;46978;50.288;28.624;2024-03-23T04:17:40;98460.02;;;5.59;100.00
60337;BME280;46978;50.288;28.624;2024-03-23T04:18:41;98458.29;;;5.59;100.00
60337;BME280;46978;50.288;28.624;2024-03-23T04:19:44;98454.00;;;5.61;100.00
60337;BME280;46978;50.288;28.624;2024-03-23T04:20:46;98447.09;;;5.63;100.00
60337;BME280;46978;50.288;28.624;2024-03-23T04:21:47;98441.95;;;5.63;100.00
60337;BME280;46978;50.288;28.624;2024-03-23T04:22:49;98448.81;;;5.64;100.00
60337;BME280;46978;50.288;28.624;2024-03-23T04:23:50;98444.50;;;5.65;100.00
60337;BME280;46978;50.288;28.624;2024-03-23T04:26:49;98445.32;;;5.67;100.00
60337;BME280;46978;50.288;28.624;2024-03-23T04:27:51;98446.20;;;5.67;100.00
60337;BME280;46978;50.288;28.624;2024-03-23T04:28:53;98447.88;;;5.68;100.00
60337;BME280;46978;50.288;28.624;2024-03-23T04:29:55;98451.34;;;5.67;100.00
60337;BME280;46978;50.288;28.624;2024-03-23T04:30:57;98452.19;;;5.68;100.00
60337;BME280;46978;50.288;28.624;2024-03-23T04:31:58;98453.92;;;5.67;100.00
60337;BME280;46978;50.288;28.624;2024-03-23T04:33:00;98453.02;;;5.68;100.00
60337;BME280;46978;50.288;28.624;2024-03-23T04:34:02;98453.00;;;5.70;100.00
60337;BME280;46978;50.288;28.624;2024-03-23T04:35:04;98452.14;;;5.71;100.00
60337;BME280;46978;50.288;28.624;2024-03-23T04:36:06;98447.02;;;5.69;100.00
60337;BME280;46978;50.288;28.624;2024-03-23T04:37:08;98441.01;;;5.70;100.00
60337;BME280;46978;50.288;28.624;2024-03-23T04:38:10;98443.58;;;5.70;100.00
60337;BME280;46978;50.288;28.624;2024-03-23T04:39:11;98449.55;;;5.72;100.00
60337;BME280;46978;50.288;28.624;2024-03-23T04:40:13;98445.24;;;5.73;100.00
60337;BME280;46978;50.288;28.624;2024-03-23T04:41:15;98442.65;;;5.74;100.00
60337;BME280;46978;50.288;28.624;2024-03-23T04:42:16;98443.52;;;5.75;100.00
60337;BME280;46978;50.288;28.624;2024-03-23T04:43:18;98441.78;;;5.75;100.00
60337;BME280;46978;50.288;28.624;2024-03-23T04:44:19;98440.91;;;5.78;100.00
60337;BME280;46978;50.288;28.624;2024-03-23T04:45:21;98439.17;;;5.79;100.00
60337;BME280;46978;50.288;28.624;2024-03-23T04:46:23;98439.98;;;5.81;100.00
60337;BME280;46978;50.288;28.624;2024-03-23T04:47:24;98440.86;;;5.81;100.00
60337;BME280;46978;50.288;28.624;2024-03-23T04:48:26;98438.28;;;5.81;100.00
60337;BME280;46978;50.288;28.624;2024-03-23T04:49:27;98433.16;;;5.80;100.00
60337;BME280;46978;50.288;28.624;2024-03-23T04:50:29;98439.97;;;5.82;100.00
60337;BME280;46978;50.288;28.624;2024-03-23T04:51:36;98434.84;;;5.81;100.00
60337;BME280;46978;50.288;28.624;2024-03-23T04:52:37;98435.69;;;5.83;100.00
60337;BME280;46978;50.288;28.624;2024-03-23T04:53:39;98437.38;;;5.84;100.00
60337;BME280;46978;50.288;28.624;2024-03-23T04:54:41;98432.22;;;5.84;100.00
60337;BME280;46978;50.288;28.624;2024-03-23T04:55:43;98433.94;;;5.85;100.00
60337;BME280;46978;50.288;28.624;2024-03-23T04:56:45;98435.65;;;5.86;100.00
60337;BME280;46978;50.288;28.624;2024-03-23T04:57:47;98433.05;;;5.87;100.00
60337;BME280;46978;50.288;28.624;2024-03-23T04:58:48;98428.72;;;5.89;100.00
60337;BME280;46978;50.288;28.624;2024-03-23T04:59:50;98433.88;;;5.89;100.00
60337;BME280;46978;50.288;28.624;2024-03-23T05:00:56;98434.69;;;5.91;100.00
60337;BME280;46978;50.288;28.624;2024-03-23T05:01:58;98426.10;;;5.92;100.00
60337;BME280;46978;50.288;28.624;2024-03-23T05:02:59;98433.81;;;5.94;100.00
60337;BME280;46978;50.288;28.624;2024-03-23T05:04:01;98424.34;;;5.95;100.00
60337;BME280;46978;50.288;28.624;2024-03-23T05:05:02;98429.50;;;5.95;100.00
60337;BME280;46978;50.288;28.624;2024-03-23T05:06:05;98428.64;;;5.96;100.00
60337;BME280;46978;50.288;28.624;2024-03-23T05:07:06;98429.47;;;5.96;100.00
60337;BME280;46978;50.288;28.624;2024-03-23T05:08:08;98428.64;;;5.96;100.00
60337;BME280;46978;50.288;28.624;2024-03-23T05:09:09;98428.64;;;5.97;100.00
60337;BME280;46978;50.288;28.624;2024-03-23T05:10:11;98432.91;;;6.00;100.00
60337;BME280;46978;50.288;28.624;2024-03-23T05:11:13;98424.29;;;6.01;100.00
60337;BME280;46978;50.288;28.624;2024-03-23T05:12:14;98419.98;;;6.03;100.00
60337;BME280;46978;50.288;28.624;2024-03-23T05:13:16;98423.36;;;6.06;100.00
60337;BME280;46978;50.288;28.624;2024-03-23T05:14:18;98414.75;;;6.09;100.00
60337;BME280;46978;50.288;28.624;2024-03-23T05:15:19;98424.11;;;6.13;100.00
60337;BME280;46978;50.288;28.624;2024-03-23T05:16:21;98418.06;;;6.16;100.00
60337;BME280;46978;50.288;28.624;2024-03-23T05:17:22;98422.33;;;6.18;100.00
60337;BME280;46978;50.288;28.624;2024-03-23T05:18:24;98426.54;;;6.22;100.00
60337;BME280;46978;50.288;28.624;2024-03-23T05:19:26;98400.75;;;6.24;100.00
60337;BME280;46978;50.288;28.624;2024-03-23T05:20:27;98417.03;;;6.27;100.00
60337;BME280;46978;50.288;28.624;2024-03-23T05:21:29;98416.98;;;6.31;100.00
60337;BME280;46978;50.288;28.624;2024-03-23T05:22:30;98416.03;;;6.35;100.00
60337;BME280;46978;50.288;28.624;2024-03-23T05:23:32;98418.61;;;6.35;100.00
60337;BME280;46978;50.288;28.624;2024-03-23T05:24:33;98420.30;;;6.37;100.00
60337;BME280;46978;50.288;28.624;2024-03-23T05:25:35;98417.70;;;6.39;100.00
60337;BME280;46978;50.288;28.624;2024-03-23T05:26:37;98418.52;;;6.41;100.00
60337;BME280;46978;50.288;28.624;2024-03-23T05:27:39;98424.52;;;6.43;100.00
60337;BME280;46978;50.288;28.624;2024-03-23T05:28:40;98421.91;;;6.44;100.00
60337;BME280;46978;50.288;28.624;2024-03-23T05:29:42;98408.13;;;6.45;100.00
60337;BME280;46978;50.288;28.624;2024-03-23T05:30:45;98428.72;;;6.47;100.00
60337;BME280;46978;50.288;28.624;2024-03-23T05:31:51;98429.59;;;6.48;100.00
60337;BME280;46978;50.288;28.624;2024-03-23T05:32:53;98423.52;;;6.50;100.00
60337;BME280;46978;50.288;28.624;2024-03-23T05:33:55;98422.65;;;6.51;100.00
60337;BME280;46978;50.288;28.624;2024-03-23T05:34:56;98432.09;;;6.52;100.00
60337;BME280;46978;50.288;28.624;2024-03-23T05:35:59;98426.89;;;6.55;100.00
60337;BME280;46978;50.288;28.624;2024-03-23T05:37:01;98421.70;;;6.57;100.00
60337;BME280;46978;50.288;28.624;2024-03-23T05:38:03;98416.52;;;6.58;100.00
60337;BME280;46978;50.288;28.624;2024-03-23T05:39:05;98426.75;;;6.61;100.00
60337;BME280;46978;50.288;28.624;2024-03-23T05:40:07;98423.30;;;6.62;100.00
60337;BME280;46978;50.288;28.624;2024-03-23T05:41:09;98426.72;;;6.63;100.00
60337;BME280;46978;50.288;28.624;2024-03-23T05:42:11;98435.36;;;6.62;100.00
60337;BME280;46978;50.288;28.624;2024-03-23T05:43:13;98428.48;;;6.61;100.00
60337;BME280;46978;50.288;28.624;2024-03-23T05:44:15;98434.45;;;6.63;100.00
60337;BME280;46978;50.288;28.624;2024-03-23T05:45:17;98431.06;;;6.61;100.00
60337;BME280;46978;50.288;28.624;2024-03-23T05:46:18;98430.20;;;6.62;100.00
60337;BME280;46978;50.288;28.624;2024-03-23T05:47:40;98425.05;;;6.62;100.00
60337;BME280;46978;50.288;28.624;2024-03-23T05:48:41;98423.30;;;6.62;100.00
60337;BME280;46978;50.288;28.624;2024-03-23T05:49:43;98424.14;;;6.63;100.00
60337;BME280;46978;50.288;28.624;2024-03-23T05:50:45;98423.30;;;6.62;100.00
60337;BME280;46978;50.288;28.624;2024-03-23T05:51:46;98420.70;;;6.64;100.00
60337;BME280;46978;50.288;28.624;2024-03-23T05:52:49;98418.94;;;6.66;100.00
60337;BME280;46978;50.288;28.624;2024-03-23T05:53:50;98423.25;;;6.66;100.00
60337;BME280;46978;50.288;28.624;2024-03-23T05:54:52;98417.23;;;6.67;100.00
60337;BME280;46978;50.288;28.624;2024-03-23T05:56:02;98421.52;;;6.66;100.00
60337;BME280;46978;50.288;28.624;2024-03-23T05:57:04;98417.20;;;6.68;100.00
60337;BME280;46978;50.288;28.624;2024-03-23T05:58:06;98423.17;;;6.70;100.00
60337;BME280;46978;50.288;28.624;2024-03-23T05:59:08;98421.38;;;6.74;100.00
60337;BME280;46978;50.288;28.624;2024-03-23T06:00:11;98420.52;;;6.75;100.00
60337;BME280;46978;50.288;28.624;2024-03-23T06:01:12;98410.14;;;6.78;100.00
60337;BME280;46978;50.288;28.624;2024-03-23T06:02:14;98415.25;;;6.81;100.00
60337;BME280;46978;50.288;28.624;2024-03-23T06:03:15;98409.17;;;6.85;100.00
60337;BME280;46978;50.288;28.624;2024-03-23T06:04:17;98407.37;;;6.89;100.00
60337;BME280;46978;50.288;28.624;2024-03-23T06:05:18;98399.55;;;6.93;100.00
60337;BME280;46978;50.288;28.624;2024-03-23T06:06:20;98402.94;;;6.95;100.00
60337;BME280;46978;50.288;28.624;2024-03-23T06:07:22;98407.17;;;6.99;100.00
60337;BME280;46978;50.288;28.624;2024-03-23T06:08:23;98407.11;;;7.03;100.00
60337;BME280;46978;50.288;28.624;2024-03-23T06:09:25;98406.19;;;7.07;100.00
60337;BME280;46978;50.288;28.624;2024-03-23T06:10:26;98406.94;;;7.12;99.96
60337;BME280;46978;50.288;28.624;2024-03-23T06:11:28;98401.71;;;7.15;99.31
60337;BME280;46978;50.288;28.624;2024-03-23T06:12:30;98403.36;;;7.19;98.81
60337;BME280;46978;50.288;28.624;2024-03-23T06:13:32;98399.81;;;7.23;98.81
60337;BME280;46978;50.288;28.624;2024-03-23T06:14:34;98399.69;;;7.29;98.91
60337;BME280;46978;50.288;28.624;2024-03-23T06:15:36;98402.98;;;7.38;98.61
60337;BME280;46978;50.288;28.624;2024-03-23T06:16:38;98402.83;;;7.45;98.16
60337;BME280;46978;50.288;28.624;2024-03-23T06:17:39;98412.93;;;7.56;97.87
60337;BME280;46978;50.288;28.624;2024-03-23T06:18:41;98403.31;;;7.63;96.70
60337;BME280;46978;50.288;28.624;2024-03-23T06:19:42;98404.89;;;7.70;97.00
60337;BME280;46978;50.288;28.624;2024-03-23T06:20:44;98424.47;;;7.79;96.92